sensor_id;sensor_type;location;lat;lon;timestamp;temperature;humidity
19892;DHT22;10108;50.142;8.724;2022-09-12T00:00:29;16.30;99.90
19892;DHT22;10108;50.142;8.724;2022-09-12T00:02:57;16.30;99.90
19892;DHT22;10108;50.142;8.724;2022-09-12T00:05:24;16.30;99.90
19892;DHT22;10108;50.142;8.724;2022-09-12T00:07:51;16.30;99.90
19892;DHT22;10108;50.142;8.724;2022-09-12T00:10:17;16.20;99.90
19892;DHT22;10108;50.142;8.724;2022-09-12T00:12:43;16.30;99.90
19892;DHT22;10108;50.142;8.724;2022-09-12T00:15:10;16.30;99.90
19892;DHT22;10108;50.142;8.724;2022-09-12T00:17:37;16.20;99.90
19892;DHT22;10108;50.142;8.724;2022-09-12T00:20:06;16.20;99.90
19892;DHT22;10108;50.142;8.724;2022-09-12T00:22:33;16.20;99.90
19892;DHT22;10108;50.142;8.724;2022-09-12T00:24:59;16.20;99.90
19892;DHT22;10108;50.142;8.724;2022-09-12T00:27:26;16.20;99.90
19892;DHT22;10108;50.142;8.724;2022-09-12T00:29:53;16.20;99.90
19892;DHT22;10108;50.142;8.724;2022-09-12T00:32:20;16.20;99.90
19892;DHT22;10108;50.142;8.724;2022-09-12T00:34:46;16.20;99.90
19892;DHT22;10108;50.142;8.724;2022-09-12T00:37:12;16.20;99.90
19892;DHT22;10108;50.142;8.724;2022-09-12T00:39:38;16.20;99.90
19892;DHT22;10108;50.142;8.724;2022-09-12T00:42:05;16.10;99.90
19892;DHT22;10108;50.142;8.724;2022-09-12T00:47:03;16.10;99.90
19892;DHT22;10108;50.142;8.724;2022-09-12T00:49:54;16.10;99.90
19892;DHT22;10108;50.142;8.724;2022-09-12T00:55:02;16.00;99.90
19892;DHT22;10108;50.142;8.724;2022-09-12T00:57:37;16.00;99.90
19892;DHT22;10108;50.142;8.724;2022-09-12T01:00:16;16.00;99.90
19892;DHT22;10108;50.142;8.724;2022-09-12T01:02:52;16.00;99.90
19892;DHT22;10108;50.142;8.724;2022-09-12T01:05:20;15.90;99.90
19892;DHT22;10108;50.142;8.724;2022-09-12T01:07:47;15.90;99.90
19892;DHT22;10108;50.142;8.724;2022-09-12T01:10:15;16.00;99.90
19892;DHT22;10108;50.142;8.724;2022-09-12T01:12:42;16.00;99.90
19892;DHT22;10108;50.142;8.724;2022-09-12T01:15:09;15.90;99.90
19892;DHT22;10108;50.142;8.724;2022-09-12T01:18:29;15.90;99.90
19892;DHT22;10108;50.142;8.724;2022-09-12T01:21:10;15.90;99.90
19892;DHT22;10108;50.142;8.724;2022-09-12T01:43:22;15.80;99.90
19892;DHT22;10108;50.142;8.724;2022-09-12T01:46:20;15.80;99.90
19892;DHT22;10108;50.142;8.724;2022-09-12T01:49:18;15.80;99.90
19892;DHT22;10108;50.142;8.724;2022-09-12T01:57:39;15.70;99.90
19892;DHT22;10108;50.142;8.724;2022-09-12T02:00:10;15.70;99.90
19892;DHT22;10108;50.142;8.724;2022-09-12T02:02:53;15.70;99.90
19892;DHT22;10108;50.142;8.724;2022-09-12T02:05:32;15.70;99.90
19892;DHT22;10108;50.142;8.724;2022-09-12T02:08:16;15.70;99.90
19892;DHT22;10108;50.142;8.724;2022-09-12T02:10:51;15.80;99.90
19892;DHT22;10108;50.142;8.724;2022-09-12T02:13:22;15.80;99.90
19892;DHT22;10108;50.142;8.724;2022-09-12T02:15:53;15.70;99.90
19892;DHT22;10108;50.142;8.724;2022-09-12T02:18:20;15.70;99.90
19892;DHT22;10108;50.142;8.724;2022-09-12T02:20:50;15.70;99.90
19892;DHT22;10108;50.142;8.724;2022-09-12T02:23:20;15.70;99.90
19892;DHT22;10108;50.142;8.724;2022-09-12T02:25:51;15.80;99.90
19892;DHT22;10108;50.142;8.724;2022-09-12T02:28:25;15.70;99.90
19892;DHT22;10108;50.142;8.724;2022-09-12T02:33:46;15.70;99.90
19892;DHT22;10108;50.142;8.724;2022-09-12T02:36:43;15.70;99.90
19892;DHT22;10108;50.142;8.724;2022-09-12T02:39:15;15.70;99.90
19892;DHT22;10108;50.142;8.724;2022-09-12T02:41:47;15.70;99.90
19892;DHT22;10108;50.142;8.724;2022-09-12T02:44:15;15.70;99.90
19892;DHT22;10108;50.142;8.724;2022-09-12T02:46:45;15.70;99.90
19892;DHT22;10108;50.142;8.724;2022-09-12T02:49:14;15.70;99.90
19892;DHT22;10108;50.142;8.724;2022-09-12T02:51:41;15.70;99.90
19892;DHT22;10108;50.142;8.724;2022-09-12T02:54:09;15.70;99.90
19892;DHT22;10108;50.142;8.724;2022-09-12T02:56:39;15.70;99.90
19892;DHT22;10108;50.142;8.724;2022-09-12T02:59:07;15.70;99.90
19892;DHT22;10108;50.142;8.724;2022-09-12T03:02:02;15.60;99.90
19892;DHT22;10108;50.142;8.724;2022-09-12T03:07:33;15.60;99.90
19892;DHT22;10108;50.142;8.724;2022-09-12T03:12:46;15.50;99.90
19892;DHT22;10108;50.142;8.724;2022-09-12T03:15:21;15.50;99.90
19892;DHT22;10108;50.142;8.724;2022-09-12T03:19:03;15.40;99.90
19892;DHT22;10108;50.142;8.724;2022-09-12T03:20:59;15.40;99.90
19892;DHT22;10108;50.142;8.724;2022-09-12T03:23:50;15.40;99.90
19892;DHT22;10108;50.142;8.724;2022-09-12T03:26:30;15.40;99.90
19892;DHT22;10108;50.142;8.724;2022-09-12T03:28:58;15.40;99.90
19892;DHT22;10108;50.142;8.724;2022-09-12T03:31:26;15.40;99.90
19892;DHT22;10108;50.142;8.724;2022-09-12T03:33:52;15.40;99.90
19892;DHT22;10108;50.142;8.724;2022-09-12T03:36:22;15.40;99.90
19892;DHT22;10108;50.142;8.724;2022-09-12T03:38:49;15.40;99.90
19892;DHT22;10108;50.142;8.724;2022-09-12T03:41:15;15.40;99.90
19892;DHT22;10108;50.142;8.724;2022-09-12T03:43:41;15.40;99.90
19892;DHT22;10108;50.142;8.724;2022-09-12T03:46:07;15.40;99.90
19892;DHT22;10108;50.142;8.724;2022-09-12T03:48:33;15.40;99.90
19892;DHT22;10108;50.142;8.724;2022-09-12T03:51:04;15.40;99.90
19892;DHT22;10108;50.142;8.724;2022-09-12T03:53:31;15.40;99.90
19892;DHT22;10108;50.142;8.724;2022-09-12T03:55:58;15.40;99.90
19892;DHT22;10108;50.142;8.724;2022-09-12T03:58:28;15.30;99.90
19892;DHT22;10108;50.142;8.724;2022-09-12T04:00:56;15.30;99.90
19892;DHT22;10108;50.142;8.724;2022-09-12T04:03:22;15.30;99.90
19892;DHT22;10108;50.142;8.724;2022-09-12T04:05:48;15.30;99.90
19892;DHT22;10108;50.142;8.724;2022-09-12T04:08:14;15.40;99.90
19892;DHT22;10108;50.142;8.724;2022-09-12T04:10:40;15.30;99.90
19892;DHT22;10108;50.142;8.724;2022-09-12T04:13:07;15.30;99.90
19892;DHT22;10108;50.142;8.724;2022-09-12T04:15:33;15.30;99.90
19892;DHT22;10108;50.142;8.724;2022-09-12T04:17:59;15.30;99.90
19892;DHT22;10108;50.142;8.724;2022-09-12T04:20:25;15.30;99.90
19892;DHT22;10108;50.142;8.724;2022-09-12T04:22:51;15.30;99.90
19892;DHT22;10108;50.142;8.724;2022-09-12T04:25:17;15.30;99.90
19892;DHT22;10108;50.142;8.724;2022-09-12T04:27:43;15.30;99.90
19892;DHT22;10108;50.142;8.724;2022-09-12T04:30:10;15.30;99.90
19892;DHT22;10108;50.142;8.724;2022-09-12T04:32:36;15.30;99.90
19892;DHT22;10108;50.142;8.724;2022-09-12T04:35:03;15.30;99.90
19892;DHT22;10108;50.142;8.724;2022-09-12T04:37:29;15.30;99.90
19892;DHT22;10108;50.142;8.724;2022-09-12T04:39:55;15.30;99.90
19892;DHT22;10108;50.142;8.724;2022-09-12T04:42:23;15.30;99.90
19892;DHT22;10108;50.142;8.724;2022-09-12T04:44:49;15.30;99.90
19892;DHT22;10108;50.142;8.724;2022-09-12T04:47:15;15.30;99.90
19892;DHT22;10108;50.142;8.724;2022-09-12T04:49:41;15.30;99.90
19892;DHT22;10108;50.142;8.724;2022-09-12T04:52:07;15.40;99.90
19892;DHT22;10108;50.142;8.724;2022-09-12T04:54:34;15.40;99.90
19892;DHT22;10108;50.142;8.724;2022-09-12T04:57:00;15.40;99.90
19892;DHT22;10108;50.142;8.724;2022-09-12T04:59:26;15.30;99.90
19892;DHT22;10108;50.142;8.724;2022-09-12T05:01:52;15.30;99.90
19892;DHT22;10108;50.142;8.724;2022-09-12T05:04:19;15.30;99.90
19892;DHT22;10108;50.142;8.724;2022-09-12T05:06:45;15.30;99.90
19892;DHT22;10108;50.142;8.724;2022-09-12T05:09:13;15.30;99.90
19892;DHT22;10108;50.142;8.724;2022-09-12T05:11:40;15.20;99.90
19892;DHT22;10108;50.142;8.724;2022-09-12T05:14:09;15.20;99.90
19892;DHT22;10108;50.142;8.724;2022-09-12T05:16:35;15.20;99.90
19892;DHT22;10108;50.142;8.724;2022-09-12T05:19:01;15.00;99.90
19892;DHT22;10108;50.142;8.724;2022-09-12T05:21:27;14.80;99.90
19892;DHT22;10108;50.142;8.724;2022-09-12T05:23:55;14.50;99.90
19892;DHT22;10108;50.142;8.724;2022-09-12T05:26:22;14.30;99.90
19892;DHT22;10108;50.142;8.724;2022-09-12T05:28:50;14.20;99.90
19892;DHT22;10108;50.142;8.724;2022-09-12T05:31:24;14.00;99.90
19892;DHT22;10108;50.142;8.724;2022-09-12T05:33:52;14.00;99.90
19892;DHT22;10108;50.142;8.724;2022-09-12T05:36:21;14.00;99.90
19892;DHT22;10108;50.142;8.724;2022-09-12T05:38:48;13.90;99.90
19892;DHT22;10108;50.142;8.724;2022-09-12T05:41:20;13.80;99.90
19892;DHT22;10108;50.142;8.724;2022-09-12T05:43:53;13.90;99.90
19892;DHT22;10108;50.142;8.724;2022-09-12T05:46:22;14.00;99.90
19892;DHT22;10108;50.142;8.724;2022-09-12T05:48:49;14.00;99.90
19892;DHT22;10108;50.142;8.724;2022-09-12T05:51:21;14.10;99.90
19892;DHT22;10108;50.142;8.724;2022-09-12T05:53:58;14.20;99.90
19892;DHT22;10108;50.142;8.724;2022-09-12T05:56:27;14.20;99.90
19892;DHT22;10108;50.142;8.724;2022-09-12T05:58:58;14.30;99.90
19892;DHT22;10108;50.142;8.724;2022-09-12T06:01:25;14.40;99.90
19892;DHT22;10108;50.142;8.724;2022-09-12T06:03:55;14.40;99.90
19892;DHT22;10108;50.142;8.724;2022-09-12T06:06:23;14.50;99.90
19892;DHT22;10108;50.142;8.724;2022-09-12T06:08:51;14.50;99.90
19892;DHT22;10108;50.142;8.724;2022-09-12T06:11:20;14.60;99.90
19892;DHT22;10108;50.142;8.724;2022-09-12T06:13:47;14.60;99.90
19892;DHT22;10108;50.142;8.724;2022-09-12T06:16:18;14.60;99.90
19892;DHT22;10108;50.142;8.724;2022-09-12T06:18:52;14.60;99.90
19892;DHT22;10108;50.142;8.724;2022-09-12T06:21:19;14.70;99.90
19892;DHT22;10108;50.142;8.724;2022-09-12T06:23:46;14.70;99.90
19892;DHT22;10108;50.142;8.724;2022-09-12T06:26:14;14.80;99.90
19892;DHT22;10108;50.142;8.724;2022-09-12T06:28:43;14.80;99.90
19892;DHT22;10108;50.142;8.724;2022-09-12T06:31:20;14.80;99.90
19892;DHT22;10108;50.142;8.724;2022-09-12T06:33:49;14.80;99.90
19892;DHT22;10108;50.142;8.724;2022-09-12T06:38:43;14.90;99.90
19892;DHT22;10108;50.142;8.724;2022-09-12T06:41:14;14.90;99.90
19892;DHT22;10108;50.142;8.724;2022-09-12T06:43:41;15.00;99.90
19892;DHT22;10108;50.142;8.724;2022-09-12T06:46:08;15.10;99.90
19892;DHT22;10108;50.142;8.724;2022-09-12T06:48:35;15.20;99.90
19892;DHT22;10108;50.142;8.724;2022-09-12T06:51:04;15.20;99.90
19892;DHT22;10108;50.142;8.724;2022-09-12T06:53:32;15.20;99.90
19892;DHT22;10108;50.142;8.724;2022-09-12T06:56:04;15.30;99.90
19892;DHT22;10108;50.142;8.724;2022-09-12T06:58:32;15.40;99.90
19892;DHT22;10108;50.142;8.724;2022-09-12T07:01:03;15.40;99.90
19892;DHT22;10108;50.142;8.724;2022-09-12T07:03:30;15.40;99.90
19892;DHT22;10108;50.142;8.724;2022-09-12T07:06:01;15.50;99.90
19892;DHT22;10108;50.142;8.724;2022-09-12T07:08:27;15.50;99.90
19892;DHT22;10108;50.142;8.724;2022-09-12T07:10:58;15.50;99.90
19892;DHT22;10108;50.142;8.724;2022-09-12T07:13:26;15.50;99.90
19892;DHT22;10108;50.142;8.724;2022-09-12T07:15:52;15.50;99.90
19892;DHT22;10108;50.142;8.724;2022-09-12T07:18:18;15.50;99.90
19892;DHT22;10108;50.142;8.724;2022-09-12T07:20:44;15.50;99.90
19892;DHT22;10108;50.142;8.724;2022-09-12T07:23:10;15.50;99.90
19892;DHT22;10108;50.142;8.724;2022-09-12T07:25:36;15.50;99.90
19892;DHT22;10108;50.142;8.724;2022-09-12T07:28:02;15.50;99.90
19892;DHT22;10108;50.142;8.724;2022-09-12T07:30:29;15.40;99.90
19892;DHT22;10108;50.142;8.724;2022-09-12T07:32:55;15.50;99.90
19892;DHT22;10108;50.142;8.724;2022-09-12T07:35:21;15.50;99.90
19892;DHT22;10108;50.142;8.724;2022-09-12T07:37:47;15.70;99.90
19892;DHT22;10108;50.142;8.724;2022-09-12T07:40:13;15.80;99.90
19892;DHT22;10108;50.142;8.724;2022-09-12T07:42:39;16.00;99.90
19892;DHT22;10108;50.142;8.724;2022-09-12T07:45:06;16.00;99.90
19892;DHT22;10108;50.142;8.724;2022-09-12T07:47:32;16.00;99.90
19892;DHT22;10108;50.142;8.724;2022-09-12T07:49:58;16.10;99.90
19892;DHT22;10108;50.142;8.724;2022-09-12T07:52:24;16.10;99.90
19892;DHT22;10108;50.142;8.724;2022-09-12T07:54:50;16.10;99.90
19892;DHT22;10108;50.142;8.724;2022-09-12T07:57:17;16.30;99.90
19892;DHT22;10108;50.142;8.724;2022-09-12T07:59:43;16.40;99.90
19892;DHT22;10108;50.142;8.724;2022-09-12T08:02:10;16.40;99.90
19892;DHT22;10108;50.142;8.724;2022-09-12T08:04:39;16.40;99.90
19892;DHT22;10108;50.142;8.724;2022-09-12T08:07:07;16.50;99.90
19892;DHT22;10108;50.142;8.724;2022-09-12T08:09:34;16.50;99.90
19892;DHT22;10108;50.142;8.724;2022-09-12T08:12:01;16.50;99.90
19892;DHT22;10108;50.142;8.724;2022-09-12T08:14:27;16.60;99.90
19892;DHT22;10108;50.142;8.724;2022-09-12T08:16:54;16.60;99.90
19892;DHT22;10108;50.142;8.724;2022-09-12T08:19:20;16.70;99.90
19892;DHT22;10108;50.142;8.724;2022-09-12T08:21:47;16.70;99.90
19892;DHT22;10108;50.142;8.724;2022-09-12T08:24:14;16.80;99.90
19892;DHT22;10108;50.142;8.724;2022-09-12T08:26:40;16.80;99.90
19892;DHT22;10108;50.142;8.724;2022-09-12T08:29:06;16.80;99.90
19892;DHT22;10108;50.142;8.724;2022-09-12T08:31:32;16.90;99.90
19892;DHT22;10108;50.142;8.724;2022-09-12T08:34:04;17.00;99.90
19892;DHT22;10108;50.142;8.724;2022-09-12T08:36:31;17.00;99.90
19892;DHT22;10108;50.142;8.724;2022-09-12T08:39:00;17.20;99.90
19892;DHT22;10108;50.142;8.724;2022-09-12T08:41:34;17.20;99.90
19892;DHT22;10108;50.142;8.724;2022-09-12T08:55:05;17.20;99.90
19892;DHT22;10108;50.142;8.724;2022-09-12T08:57:37;17.20;99.90
19892;DHT22;10108;50.142;8.724;2022-09-12T09:00:05;17.30;99.90
19892;DHT22;10108;50.142;8.724;2022-09-12T09:08:28;17.50;99.90
19892;DHT22;10108;50.142;8.724;2022-09-12T09:11:14;17.60;99.90
19892;DHT22;10108;50.142;8.724;2022-09-12T09:14:16;17.70;99.90
19892;DHT22;10108;50.142;8.724;2022-09-12T09:17:21;17.70;99.90
19892;DHT22;10108;50.142;8.724;2022-09-12T09:19:56;17.80;99.90
19892;DHT22;10108;50.142;8.724;2022-09-12T09:22:30;17.90;99.90
19892;DHT22;10108;50.142;8.724;2022-09-12T09:25:03;17.90;99.90
19892;DHT22;10108;50.142;8.724;2022-09-12T09:27:34;17.90;99.90
19892;DHT22;10108;50.142;8.724;2022-09-12T09:30:02;17.90;99.90
19892;DHT22;10108;50.142;8.724;2022-09-12T09:32:37;17.90;99.90
19892;DHT22;10108;50.142;8.724;2022-09-12T09:35:44;18.00;99.90
19892;DHT22;10108;50.142;8.724;2022-09-12T09:38:40;18.00;99.90
19892;DHT22;10108;50.142;8.724;2022-09-12T09:43:37;18.30;99.90
19892;DHT22;10108;50.142;8.724;2022-09-12T09:46:04;18.30;99.90
19892;DHT22;10108;50.142;8.724;2022-09-12T09:48:33;18.40;99.90
19892;DHT22;10108;50.142;8.724;2022-09-12T09:51:02;18.40;99.90
19892;DHT22;10108;50.142;8.724;2022-09-12T09:53:34;18.40;99.90
19892;DHT22;10108;50.142;8.724;2022-09-12T09:56:09;18.50;99.90
19892;DHT22;10108;50.142;8.724;2022-09-12T09:58:36;18.50;99.90
19892;DHT22;10108;50.142;8.724;2022-09-12T10:01:05;18.50;99.90
19892;DHT22;10108;50.142;8.724;2022-09-12T10:03:37;18.60;99.90
19892;DHT22;10108;50.142;8.724;2022-09-12T10:08:36;18.70;99.90
19892;DHT22;10108;50.142;8.724;2022-09-12T10:11:04;18.70;99.90
19892;DHT22;10108;50.142;8.724;2022-09-12T10:13:37;18.70;99.90
19892;DHT22;10108;50.142;8.724;2022-09-12T10:16:19;18.70;99.90
19892;DHT22;10108;50.142;8.724;2022-09-12T10:18:48;18.70;99.90
19892;DHT22;10108;50.142;8.724;2022-09-12T10:21:33;18.70;99.90
19892;DHT22;10108;50.142;8.724;2022-09-12T10:24:37;18.80;99.90
19892;DHT22;10108;50.142;8.724;2022-09-12T10:29:46;19.00;99.90
19892;DHT22;10108;50.142;8.724;2022-09-12T10:32:35;19.10;99.90
19892;DHT22;10108;50.142;8.724;2022-09-12T10:35:15;19.10;99.90
19892;DHT22;10108;50.142;8.724;2022-09-12T10:37:57;19.10;99.90
19892;DHT22;10108;50.142;8.724;2022-09-12T10:40:27;19.00;99.90
19892;DHT22;10108;50.142;8.724;2022-09-12T10:42:56;19.10;99.90
19892;DHT22;10108;50.142;8.724;2022-09-12T10:45:35;19.10;99.90
19892;DHT22;10108;50.142;8.724;2022-09-12T10:48:28;19.10;99.90
19892;DHT22;10108;50.142;8.724;2022-09-12T10:50:55;19.20;99.90
19892;DHT22;10108;50.142;8.724;2022-09-12T10:53:26;19.30;99.90
19892;DHT22;10108;50.142;8.724;2022-09-12T10:56:07;19.40;99.90
19892;DHT22;10108;50.142;8.724;2022-09-12T11:01:45;19.40;99.90
19892;DHT22;10108;50.142;8.724;2022-09-12T11:07:01;19.50;99.90
19892;DHT22;10108;50.142;8.724;2022-09-12T11:24:03;19.60;99.90
19892;DHT22;10108;50.142;8.724;2022-09-12T11:29:58;19.60;99.90
19892;DHT22;10108;50.142;8.724;2022-09-12T11:32:55;19.60;99.90
19892;DHT22;10108;50.142;8.724;2022-09-12T11:35:25;19.70;99.90
19892;DHT22;10108;50.142;8.724;2022-09-12T11:40:32;19.70;99.90
19892;DHT22;10108;50.142;8.724;2022-09-12T11:43:38;19.70;99.90
19892;DHT22;10108;50.142;8.724;2022-09-12T11:46:16;19.80;99.90
19892;DHT22;10108;50.142;8.724;2022-09-12T11:54:27;19.80;99.90
19892;DHT22;10108;50.142;8.724;2022-09-12T11:59:34;19.90;99.90
19892;DHT22;10108;50.142;8.724;2022-09-12T12:02:03;19.90;99.90
19892;DHT22;10108;50.142;8.724;2022-09-12T12:04:40;19.90;99.90
19892;DHT22;10108;50.142;8.724;2022-09-12T12:07:10;20.00;99.90
19892;DHT22;10108;50.142;8.724;2022-09-12T12:09:50;19.90;99.90
19892;DHT22;10108;50.142;8.724;2022-09-12T12:12:27;20.00;99.90
19892;DHT22;10108;50.142;8.724;2022-09-12T12:14:54;20.00;99.90
19892;DHT22;10108;50.142;8.724;2022-09-12T12:17:22;19.90;99.90
19892;DHT22;10108;50.142;8.724;2022-09-12T12:20:03;20.00;99.90
19892;DHT22;10108;50.142;8.724;2022-09-12T12:22:30;19.90;99.90
19892;DHT22;10108;50.142;8.724;2022-09-12T12:25:03;19.90;99.90
19892;DHT22;10108;50.142;8.724;2022-09-12T12:38:03;19.90;99.90
19892;DHT22;10108;50.142;8.724;2022-09-12T12:40:31;19.90;99.90
19892;DHT22;10108;50.142;8.724;2022-09-12T12:43:02;19.90;99.90
19892;DHT22;10108;50.142;8.724;2022-09-12T12:48:15;20.00;99.90
19892;DHT22;10108;50.142;8.724;2022-09-12T12:50:42;20.00;99.90
19892;DHT22;10108;50.142;8.724;2022-09-12T12:53:20;20.00;99.90
19892;DHT22;10108;50.142;8.724;2022-09-12T12:55:50;19.90;99.90
19892;DHT22;10108;50.142;8.724;2022-09-12T12:58:33;19.90;99.90
19892;DHT22;10108;50.142;8.724;2022-09-12T13:01:16;19.90;99.90
19892;DHT22;10108;50.142;8.724;2022-09-12T13:03:44;20.10;99.90
19892;DHT22;10108;50.142;8.724;2022-09-12T13:06:34;20.10;99.90
19892;DHT22;10108;50.142;8.724;2022-09-12T13:09:04;20.10;99.90
19892;DHT22;10108;50.142;8.724;2022-09-12T13:11:37;20.10;99.90
19892;DHT22;10108;50.142;8.724;2022-09-12T13:14:05;20.10;99.90
19892;DHT22;10108;50.142;8.724;2022-09-12T13:16:39;20.10;99.90
19892;DHT22;10108;50.142;8.724;2022-09-12T13:19:24;20.00;99.90
19892;DHT22;10108;50.142;8.724;2022-09-12T13:21:55;20.10;99.90
19892;DHT22;10108;50.142;8.724;2022-09-12T13:24:22;20.10;99.90
19892;DHT22;10108;50.142;8.724;2022-09-12T13:26:49;20.10;99.90
19892;DHT22;10108;50.142;8.724;2022-09-12T13:29:17;20.00;99.90
19892;DHT22;10108;50.142;8.724;2022-09-12T13:31:46;20.00;99.90
19892;DHT22;10108;50.142;8.724;2022-09-12T13:34:22;20.00;99.90
19892;DHT22;10108;50.142;8.724;2022-09-12T13:37:24;20.10;99.90
19892;DHT22;10108;50.142;8.724;2022-09-12T13:43:15;20.20;99.90
19892;DHT22;10108;50.142;8.724;2022-09-12T13:45:44;20.30;99.90
19892;DHT22;10108;50.142;8.724;2022-09-12T13:48:22;20.30;99.90
19892;DHT22;10108;50.142;8.724;2022-09-12T13:53:20;20.40;99.90
19892;DHT22;10108;50.142;8.724;2022-09-12T13:55:50;20.40;99.90
19892;DHT22;10108;50.142;8.724;2022-09-12T13:58:22;20.40;99.90
19892;DHT22;10108;50.142;8.724;2022-09-12T14:03:38;20.30;99.90
19892;DHT22;10108;50.142;8.724;2022-09-12T14:06:23;20.20;99.90
19892;DHT22;10108;50.142;8.724;2022-09-12T14:08:50;20.20;99.90
19892;DHT22;10108;50.142;8.724;2022-09-12T14:11:28;20.10;99.90
19892;DHT22;10108;50.142;8.724;2022-09-12T14:13:55;20.10;99.90
19892;DHT22;10108;50.142;8.724;2022-09-12T14:16:22;20.10;99.90
19892;DHT22;10108;50.142;8.724;2022-09-12T14:18:49;20.10;99.90
19892;DHT22;10108;50.142;8.724;2022-09-12T14:21:31;20.10;99.90
19892;DHT22;10108;50.142;8.724;2022-09-12T14:23:59;20.00;99.90
19892;DHT22;10108;50.142;8.724;2022-09-12T14:26:27;20.10;99.90
19892;DHT22;10108;50.142;8.724;2022-09-12T14:28:57;20.10;99.90
19892;DHT22;10108;50.142;8.724;2022-09-12T14:31:29;20.10;99.90
19892;DHT22;10108;50.142;8.724;2022-09-12T14:34:14;20.10;99.90
19892;DHT22;10108;50.142;8.724;2022-09-12T14:36:51;20.10;99.90
19892;DHT22;10108;50.142;8.724;2022-09-12T14:39:32;20.10;99.90
19892;DHT22;10108;50.142;8.724;2022-09-12T14:44:51;20.10;99.90
19892;DHT22;10108;50.142;8.724;2022-09-12T14:47:23;20.10;99.90
19892;DHT22;10108;50.142;8.724;2022-09-12T14:49:50;20.10;99.90
19892;DHT22;10108;50.142;8.724;2022-09-12T14:52:26;20.10;99.90
19892;DHT22;10108;50.142;8.724;2022-09-12T14:54:59;20.10;99.90
19892;DHT22;10108;50.142;8.724;2022-09-12T14:57:39;20.10;99.90
19892;DHT22;10108;50.142;8.724;2022-09-12T15:02:42;20.10;99.90
19892;DHT22;10108;50.142;8.724;2022-09-12T15:10:20;20.30;99.90
19892;DHT22;10108;50.142;8.724;2022-09-12T15:12:48;20.40;99.90
19892;DHT22;10108;50.142;8.724;2022-09-12T15:15:19;20.30;99.90
19892;DHT22;10108;50.142;8.724;2022-09-12T15:17:45;20.30;99.90
19892;DHT22;10108;50.142;8.724;2022-09-12T15:20:13;20.20;99.90
19892;DHT22;10108;50.142;8.724;2022-09-12T15:22:39;20.20;99.90
19892;DHT22;10108;50.142;8.724;2022-09-12T15:25:08;20.20;99.90
19892;DHT22;10108;50.142;8.724;2022-09-12T15:27:35;20.20;99.90
19892;DHT22;10108;50.142;8.724;2022-09-12T15:30:09;20.20;99.90
19892;DHT22;10108;50.142;8.724;2022-09-12T15:32:37;20.20;99.90
19892;DHT22;10108;50.142;8.724;2022-09-12T15:35:19;20.20;99.90
19892;DHT22;10108;50.142;8.724;2022-09-12T15:37:48;20.20;99.90
19892;DHT22;10108;50.142;8.724;2022-09-12T15:40:15;20.20;99.90
19892;DHT22;10108;50.142;8.724;2022-09-12T15:42:41;20.20;99.90
19892;DHT22;10108;50.142;8.724;2022-09-12T15:45:19;20.20;99.90
19892;DHT22;10108;50.142;8.724;2022-09-12T15:47:47;20.20;99.90
19892;DHT22;10108;50.142;8.724;2022-09-12T15:50:13;20.40;99.90
19892;DHT22;10108;50.142;8.724;2022-09-12T15:52:39;20.50;99.90
19892;DHT22;10108;50.142;8.724;2022-09-12T15:55:18;20.50;99.90
19892;DHT22;10108;50.142;8.724;2022-09-12T15:57:45;20.40;99.90
19892;DHT22;10108;50.142;8.724;2022-09-12T16:00:14;20.40;99.90
19892;DHT22;10108;50.142;8.724;2022-09-12T16:02:40;20.40;99.90
19892;DHT22;10108;50.142;8.724;2022-09-12T16:05:16;20.40;99.90
19892;DHT22;10108;50.142;8.724;2022-09-12T16:07:43;20.30;99.90
19892;DHT22;10108;50.142;8.724;2022-09-12T16:10:14;20.30;99.90
19892;DHT22;10108;50.142;8.724;2022-09-12T16:12:41;20.30;99.90
19892;DHT22;10108;50.142;8.724;2022-09-12T16:15:12;20.30;99.90
19892;DHT22;10108;50.142;8.724;2022-09-12T16:17:38;20.20;99.90
19892;DHT22;10108;50.142;8.724;2022-09-12T16:20:05;20.20;99.90
19892;DHT22;10108;50.142;8.724;2022-09-12T16:22:31;20.30;99.90
19892;DHT22;10108;50.142;8.724;2022-09-12T16:24:57;20.20;99.90
19892;DHT22;10108;50.142;8.724;2022-09-12T16:27:23;20.20;99.90
19892;DHT22;10108;50.142;8.724;2022-09-12T16:29:49;20.20;99.90
19892;DHT22;10108;50.142;8.724;2022-09-12T16:32:17;20.20;99.90
19892;DHT22;10108;50.142;8.724;2022-09-12T16:34:43;20.30;99.90
19892;DHT22;10108;50.142;8.724;2022-09-12T16:37:09;20.40;99.90
19892;DHT22;10108;50.142;8.724;2022-09-12T16:39:35;20.50;99.90
19892;DHT22;10108;50.142;8.724;2022-09-12T16:42:01;20.50;99.90
19892;DHT22;10108;50.142;8.724;2022-09-12T16:44:28;20.50;99.90
19892;DHT22;10108;50.142;8.724;2022-09-12T16:46:54;20.40;99.90
19892;DHT22;10108;50.142;8.724;2022-09-12T16:49:20;20.50;99.90
19892;DHT22;10108;50.142;8.724;2022-09-12T16:51:46;20.50;99.90
19892;DHT22;10108;50.142;8.724;2022-09-12T16:54:13;20.40;99.90
19892;DHT22;10108;50.142;8.724;2022-09-12T16:56:40;20.30;99.90
19892;DHT22;10108;50.142;8.724;2022-09-12T16:59:07;20.30;99.90
19892;DHT22;10108;50.142;8.724;2022-09-12T17:01:34;20.20;99.90
19892;DHT22;10108;50.142;8.724;2022-09-12T17:04:01;20.20;99.90
19892;DHT22;10108;50.142;8.724;2022-09-12T17:06:27;20.30;99.90
19892;DHT22;10108;50.142;8.724;2022-09-12T17:08:57;20.30;99.90
19892;DHT22;10108;50.142;8.724;2022-09-12T17:11:27;20.20;99.90
19892;DHT22;10108;50.142;8.724;2022-09-12T17:13:56;20.20;99.90
19892;DHT22;10108;50.142;8.724;2022-09-12T17:16:23;20.10;99.90
19892;DHT22;10108;50.142;8.724;2022-09-12T17:18:50;20.30;99.90
19892;DHT22;10108;50.142;8.724;2022-09-12T17:21:17;20.20;99.90
19892;DHT22;10108;50.142;8.724;2022-09-12T17:23:43;20.30;99.90
19892;DHT22;10108;50.142;8.724;2022-09-12T17:26:10;20.10;99.90
19892;DHT22;10108;50.142;8.724;2022-09-12T17:28:37;20.10;99.90
19892;DHT22;10108;50.142;8.724;2022-09-12T17:31:07;20.00;99.90
19892;DHT22;10108;50.142;8.724;2022-09-12T17:33:34;20.10;99.90
19892;DHT22;10108;50.142;8.724;2022-09-12T17:36:03;20.10;99.90
19892;DHT22;10108;50.142;8.724;2022-09-12T17:38:33;19.90;99.90
19892;DHT22;10108;50.142;8.724;2022-09-12T17:41:07;19.90;99.90
19892;DHT22;10108;50.142;8.724;2022-09-12T17:43:36;19.80;99.90
19892;DHT22;10108;50.142;8.724;2022-09-12T17:46:03;19.80;99.90
19892;DHT22;10108;50.142;8.724;2022-09-12T17:48:30;19.70;99.90
19892;DHT22;10108;50.142;8.724;2022-09-12T17:50:56;19.60;99.90
19892;DHT22;10108;50.142;8.724;2022-09-12T17:53:22;19.50;99.90
19892;DHT22;10108;50.142;8.724;2022-09-12T17:55:48;19.50;99.90
19892;DHT22;10108;50.142;8.724;2022-09-12T17:58:15;19.40;99.90
19892;DHT22;10108;50.142;8.724;2022-09-12T18:00:41;19.20;99.90
19892;DHT22;10108;50.142;8.724;2022-09-12T18:03:27;19.10;99.90
19892;DHT22;10108;50.142;8.724;2022-09-12T18:05:54;19.10;99.90